This is the latest recevied weather packets stored in our database for station/object OM6ABF-11. If no packets are shown the sender has not sent any weather packets the latest 10 day(s).
| Time | Temp. | Humidity | Pressure | Rain* | Wind** | Luminosity | Snow |
|---|---|---|---|---|---|---|---|
| 1778097943 | 16.67° C | 55% | 1010.7 hPa | - | - | - | - |
| 1778097043 | 16.67° C | 55% | 1010.8 hPa | - | - | - | - |
| 1778096143 | 16.11° C | 56% | 1010.4 hPa | - | - | - | - |
| 1778095244 | 16.11° C | 56% | 1010.5 hPa | - | - | - | - |
| 1778094344 | 16.67° C | 54% | 1010.3 hPa | - | - | - | - |
| 1778093445 | 16.67° C | 53% | 1010.1 hPa | - | - | - | - |
| 1778092546 | 17.78° C | 50% | 1010.1 hPa | - | - | - | - |
| 1778091647 | 18.33° C | 47% | 1009.9 hPa | - | - | - | - |
| 1778090748 | 18.89° C | 45% | 1009.9 hPa | - | - | - | - |
| 1778089847 | 19.44° C | 43% | 1009.9 hPa | - | - | - | - |
| 1778088948 | 19.44° C | 42% | 1009.8 hPa | - | - | - | - |
| 1778088048 | 19.44° C | 42% | 1009.9 hPa | - | - | - | - |
| 1778087150 | 19.44° C | 42% | 1010 hPa | - | - | - | - |
| 1778086251 | 19.44° C | 44% | 1010 hPa | - | - | - | - |
| 1778085352 | 19.44° C | 45% | 1010 hPa | - | - | - | - |
| 1778084453 | 19.44° C | 45% | 1010.1 hPa | - | - | - | - |
| 1778083553 | 19.44° C | 46% | 1010.1 hPa | - | - | - | - |
| 1778082655 | 20° C | 45% | 1010.4 hPa | - | - | - | - |
| 1778081755 | 21.11° C | 41% | 1010.4 hPa | - | - | - | - |
| 1778080855 | 21.67° C | 40% | 1010.5 hPa | - | - | - | - |
| 1778079956 | 21.11° C | 42% | 1010.6 hPa | - | - | - | - |
| 1778079056 | 21.67° C | 40% | 1010.7 hPa | - | - | - | - |
| 1778078157 | 23.33° C | 37% | 1010.7 hPa | - | - | - | - |
| 1778077258 | 21.67° C | 40% | 1010.9 hPa | - | - | - | - |
| 1778076361 | 20° C | 45% | 1011.1 hPa | - | - | - | - |
* Rain since midnight (hover to see other rain measurements)
** Current wind speed in m/s (hover to see current wind gust speed)